Abis Cuxhaven — PBYB — position and weather

sailwx.info

Track history (hours):
 
Tides and Currents Weather Stations Pressure Air Temp Water Temp Dewpoint Dewpoint Depression Visibility Wind Speed Wind Dir Waves Ship Positions

Abis Cuxhaven

Last reported at 2014-Sep-01 18:04 UTC. Time now 2014-Sep-01 18:38 UTC.
Position N 38°58' W 009°50'.

Length 114 m; draft 4.2 m.

Type: Cargo ship. MMSI: 246670000.

Date/timePositionNaut miles runAvg speedWind from/ knotsBaromVisibWave heightAir tempDewpointWater temp
2014-Sep-01 18:04N 38°58' W 009°50'9 9.8
2014-Sep-01 17:09N 38°49' W 009°50'6 9.5
2014-Sep-01 16:30N 38°43' W 009°50'30 9.7
2014-Sep-01 13:22N 38°13' W 009°42'58 9.9
2014-Sep-01 07:32N 37°17' W 009°25'10 9.9
2014-Sep-01 06:33N 37°07' W 009°22'18 9.2
2014-Sep-01 04:33N 36°50' W 009°14'9 8.9
2014-Sep-01 03:33N 36°45' W 009°06'10 9.8
2014-Sep-01 02:33N 36°42' W 008°54'1010.2
2014-Sep-01 01:33N 36°38' W 008°42'1010.4
2014-Sep-01 00:33N 36°35' W 008°30'1010.3
2014-Aug-31 23:33N 36°32' W 008°18'1110.5
2014-Aug-31 22:30N 36°28' W 008°05'1010.3
2014-Aug-31 21:33N 36°25' W 007°53'127 9.6
2014-Aug-31 08:18N 36°00' W 005°19'296 9.6
2014-Aug-30 01:33N 36°42' E 000°45'9 9.4
2014-Aug-30 00:33N 36°43' E 000°57'9 9.4
2014-Aug-29 23:33N 36°44' E 001°09'29 9.5
2014-Aug-29 20:32N 36°47' E 001°44'10 9.7
2014-Aug-29 19:31N 36°49' E 001°57'9 9.3
2014-Aug-29 18:33N 36°50' E 002°08'9 9.1
2014-Aug-29 17:33N 36°51' E 002°19'9 9.1
2014-Aug-29 16:33N 36°52' E 002°30'11 9.4
2014-Aug-29 15:24N 36°53' E 002°44'8 9.5
2014-Aug-29 14:33N 36°54' E 002°54'10 9.9
2014-Aug-29 13:33N 36°55' E 003°06'1010.1
2014-Aug-29 12:33N 36°56' E 003°19'1110.0
2014-Aug-29 11:25N 36°57' E 003°33'1110.0
2014-Aug-29 10:19N 36°59' E 003°46'8 9.6
2014-Aug-29 09:31N 36°59' E 003°56'9 9.4
2014-Aug-29 08:33N 36°60' E 004°07'10 9.7
2014-Aug-29 07:33N 36°60' E 004°20'1010.1
2014-Aug-29 06:32N 36°60' E 004°32'11 9.9
2014-Aug-29 05:25N 36°60' E 004°46'9 9.9
2014-Aug-29 04:33N 36°59' E 004°57'13 9.9
2014-Aug-29 03:14N 36°58' E 005°13'7 9.8
2014-Aug-29 02:33N 36°57' E 005°21'22 9.9
2014-Aug-29 00:22N 36°53' E 005°48'6 7.3
2014-Aug-28 23:33N 36°50' E 005°54'0 0.0
2014-Aug-28 22:05N 36°49' E 005°54'0 0.0
2014-Aug-28 21:32N 36°49' E 005°54'0 0.0
2014-Aug-28 20:29N 36°49' E 005°54'0 0.0
2014-Aug-28 19:32N 36°49' E 005°54'0 0.0
2014-Aug-28 18:32N 36°49' E 005°54'0 0.0
2014-Aug-28 17:32N 36°49' E 005°54'0 0.0
2014-Aug-28 16:32N 36°49' E 005°54'0 0.0
2014-Aug-28 15:32N 36°49' E 005°54'0 0.0
2014-Aug-28 14:29N 36°49' E 005°54'0 0.0
2014-Aug-28 13:14N 36°49' E 005°54'0 0.0
2014-Aug-28 12:32N 36°49' E 005°54'0 0.0
2014-Aug-28 11:32N 36°49' E 005°54'0 0.0
2014-Aug-28 10:32N 36°49' E 005°54'0 0.0
2014-Aug-28 09:32N 36°49' E 005°54'0 0.0
2014-Aug-28 08:32N 36°49' E 005°54'0 0.0
2014-Aug-28 07:23N 36°49' E 005°54'0 0.0
2014-Aug-28 06:33N 36°49' E 005°54'2 2.2
2014-Aug-28 05:30N 36°52' E 005°54'4 3.2
2014-Aug-28 04:18N 36°53' E 005°49'0 0.0
2014-Aug-28 02:23N 36°53' E 005°49'0 0.0
2014-Aug-28 01:29N 36°53' E 005°49'0 0.0
2014-Aug-27 23:29N 36°53' E 005°49'0 0.0
2014-Aug-27 21:11N 36°53' E 005°49'0 0.0
2014-Aug-27 20:32N 36°53' E 005°49'0 0.0
2014-Aug-27 19:32N 36°53' E 005°49'0 0.0
2014-Aug-27 14:08N 36°53' E 005°50'0 0.0
2014-Aug-27 13:23N 36°53' E 005°50'0 0.0
2014-Aug-27 11:32N 36°53' E 005°50'0 0.0
2014-Aug-27 02:20N 36°53' E 005°50'2 1.6
2014-Aug-27 01:20N 36°53' E 005°48'12 9.4
2014-Aug-27 00:06N 36°55' E 005°33'7 9.7
2014-Aug-26 23:25N 36°56' E 005°25'8 9.7
2014-Aug-26 22:33N 36°57' E 005°15'9 9.3
2014-Aug-26 21:33N 36°59' E 005°03'10 9.4
2014-Aug-26 20:32N 36°59' E 004°51'9 8.9
2014-Aug-26 19:33N 36°60' E 004°40'9 8.9
2014-Aug-26 18:33N 36°60' E 004°29'9 9.5
2014-Aug-26 17:33N 36°60' E 004°17'10 9.8
2014-Aug-26 16:33N 37°00' E 004°05'1010.1
2014-Aug-26 15:31N 37°01' E 003°52'10 9.6
2014-Aug-26 14:31N 37°00' E 003°40'9 9.0
2014-Aug-26 13:33N 36°59' E 003°29'10 9.2
2014-Aug-26 12:30N 36°58' E 003°17'9 9.2
2014-Aug-26 11:33N 36°56' E 003°07'10 9.4
2014-Aug-26 10:31N 36°55' E 002°55'9 9.6
2014-Aug-26 09:33N 36°54' E 002°43'1410.2
2014-Aug-26 08:09N 36°52' E 002°25'810.3
2014-Aug-26 07:24N 36°51' E 002°16'1910.5
2014-Aug-26 05:33N 36°48' E 001°52'1110.2
2014-Aug-26 04:31N 36°47' E 001°39'29 9.7
2014-Aug-26 01:33N 36°43' E 001°03'10 9.9
2014-Aug-26 00:33N 36°41' E 000°51'1010.2
2014-Aug-25 23:33N 36°40' E 000°38'9 9.4
2014-Aug-25 22:33N 36°38' E 000°27'9 9.1
2014-Aug-25 21:33N 36°37' E 000°15'9 8.7
2014-Aug-25 20:33N 36°36' E 000°05'10 8.5
2014-Aug-25 19:25N 36°35' W 000°07'7 8.3
2014-Aug-25 18:33N 36°34' W 000°16'8 8.3
2014-Aug-25 17:33N 36°33' W 000°26'9 8.5
2014-Aug-25 16:30N 36°32' W 000°38'8 8.6
2014-Aug-25 15:33N 36°30' W 000°48'20 8.9
2014-Aug-25 13:18N 36°27' W 001°12'9 8.7
2014-Aug-25 12:17N 36°26' W 001°23'6 8.5
2014-Aug-25 11:33N 36°26' W 001°31'54 9.0
2014-Aug-25 05:31N 36°18' W 002°37'295 9.8
2014-Aug-23 23:28N 36°27' W 008°44'9 9.8
2014-Aug-23 22:32N 36°30' W 008°55'1010.7
2014-Aug-23 21:33N 36°33' W 009°07'10 9.8
2014-Aug-23 20:30N 36°37' W 009°19'1010.2
2014-Aug-23 19:32N 36°44' W 009°27'  
Track history (hours):
 
Tides and Currents Weather Stations Pressure Air Temp Water Temp Dewpoint Dewpoint Depression Visibility Wind Speed Wind Dir Waves Ship Positions

Abis Cuxhaven

Last reported at 2014-Sep-01 18:04 UTC. Time now 2014-Sep-01 18:38 UTC.
Position N 38°58' W 009°50'.

Length 114 m; draft 4.2 m.

Type: Cargo ship. MMSI: 246670000.

Date/timePositionNaut miles runAvg speedWind from/ knotsBaromVisibWave heightAir tempDewpointWater temp
2014-Sep-01 18:04N 38°58' W 009°50'9 9.8
2014-Sep-01 17:09N 38°49' W 009°50'6 9.5
2014-Sep-01 16:30N 38°43' W 009°50'30 9.7
2014-Sep-01 13:22N 38°13' W 009°42'58 9.9
2014-Sep-01 07:32N 37°17' W 009°25'10 9.9
2014-Sep-01 06:33N 37°07' W 009°22'18 9.2
2014-Sep-01 04:33N 36°50' W 009°14'9 8.9
2014-Sep-01 03:33N 36°45' W 009°06'10 9.8
2014-Sep-01 02:33N 36°42' W 008°54'1010.2
2014-Sep-01 01:33N 36°38' W 008°42'1010.4
2014-Sep-01 00:33N 36°35' W 008°30'1010.3
2014-Aug-31 23:33N 36°32' W 008°18'1110.5
2014-Aug-31 22:30N 36°28' W 008°05'1010.3
2014-Aug-31 21:33N 36°25' W 007°53'127 9.6
2014-Aug-31 08:18N 36°00' W 005°19'296 9.6
2014-Aug-30 01:33N 36°42' E 000°45'9 9.4
2014-Aug-30 00:33N 36°43' E 000°57'9 9.4
2014-Aug-29 23:33N 36°44' E 001°09'29 9.5
2014-Aug-29 20:32N 36°47' E 001°44'10 9.7
2014-Aug-29 19:31N 36°49' E 001°57'9 9.3
2014-Aug-29 18:33N 36°50' E 002°08'9 9.1
2014-Aug-29 17:33N 36°51' E 002°19'9 9.1
2014-Aug-29 16:33N 36°52' E 002°30'11 9.4
2014-Aug-29 15:24N 36°53' E 002°44'8 9.5
2014-Aug-29 14:33N 36°54' E 002°54'10 9.9
2014-Aug-29 13:33N 36°55' E 003°06'1010.1
2014-Aug-29 12:33N 36°56' E 003°19'1110.0
2014-Aug-29 11:25N 36°57' E 003°33'1110.0
2014-Aug-29 10:19N 36°59' E 003°46'8 9.6
2014-Aug-29 09:31N 36°59' E 003°56'9 9.4
2014-Aug-29 08:33N 36°60' E 004°07'10 9.7
2014-Aug-29 07:33N 36°60' E 004°20'1010.1
2014-Aug-29 06:32N 36°60' E 004°32'11 9.9
2014-Aug-29 05:25N 36°60' E 004°46'9 9.9
2014-Aug-29 04:33N 36°59' E 004°57'13 9.9
2014-Aug-29 03:14N 36°58' E 005°13'7 9.8
2014-Aug-29 02:33N 36°57' E 005°21'22 9.9
2014-Aug-29 00:22N 36°53' E 005°48'6 7.3
2014-Aug-28 23:33N 36°50' E 005°54'0 0.0
2014-Aug-28 22:05N 36°49' E 005°54'0 0.0
2014-Aug-28 21:32N 36°49' E 005°54'0 0.0
2014-Aug-28 20:29N 36°49' E 005°54'0 0.0
2014-Aug-28 19:32N 36°49' E 005°54'0 0.0
2014-Aug-28 18:32N 36°49' E 005°54'0 0.0
2014-Aug-28 17:32N 36°49' E 005°54'0 0.0
2014-Aug-28 16:32N 36°49' E 005°54'0 0.0
2014-Aug-28 15:32N 36°49' E 005°54'0 0.0
2014-Aug-28 14:29N 36°49' E 005°54'0 0.0
2014-Aug-28 13:14N 36°49' E 005°54'0 0.0
2014-Aug-28 12:32N 36°49' E 005°54'0 0.0
2014-Aug-28 11:32N 36°49' E 005°54'0 0.0
2014-Aug-28 10:32N 36°49' E 005°54'0 0.0
2014-Aug-28 09:32N 36°49' E 005°54'0 0.0
2014-Aug-28 08:32N 36°49' E 005°54'0 0.0
2014-Aug-28 07:23N 36°49' E 005°54'0 0.0
2014-Aug-28 06:33N 36°49' E 005°54'2 2.2
2014-Aug-28 05:30N 36°52' E 005°54'4 3.2
2014-Aug-28 04:18N 36°53' E 005°49'0 0.0
2014-Aug-28 02:23N 36°53' E 005°49'0 0.0
2014-Aug-28 01:29N 36°53' E 005°49'0 0.0
2014-Aug-27 23:29N 36°53' E 005°49'0 0.0
2014-Aug-27 21:11N 36°53' E 005°49'0 0.0
2014-Aug-27 20:32N 36°53' E 005°49'0 0.0
2014-Aug-27 19:32N 36°53' E 005°49'0 0.0
2014-Aug-27 14:08N 36°53' E 005°50'0 0.0
2014-Aug-27 13:23N 36°53' E 005°50'0 0.0
2014-Aug-27 11:32N 36°53' E 005°50'0 0.0
2014-Aug-27 02:20N 36°53' E 005°50'2 1.6
2014-Aug-27 01:20N 36°53' E 005°48'12 9.4
2014-Aug-27 00:06N 36°55' E 005°33'7 9.7
2014-Aug-26 23:25N 36°56' E 005°25'8 9.7
2014-Aug-26 22:33N 36°57' E 005°15'9 9.3
2014-Aug-26 21:33N 36°59' E 005°03'10 9.4
2014-Aug-26 20:32N 36°59' E 004°51'9 8.9
2014-Aug-26 19:33N 36°60' E 004°40'9 8.9
2014-Aug-26 18:33N 36°60' E 004°29'9 9.5
2014-Aug-26 17:33N 36°60' E 004°17'10 9.8
2014-Aug-26 16:33N 37°00' E 004°05'1010.1
2014-Aug-26 15:31N 37°01' E 003°52'10 9.6
2014-Aug-26 14:31N 37°00' E 003°40'9 9.0
2014-Aug-26 13:33N 36°59' E 003°29'10 9.2
2014-Aug-26 12:30N 36°58' E 003°17'9 9.2
2014-Aug-26 11:33N 36°56' E 003°07'10 9.4
2014-Aug-26 10:31N 36°55' E 002°55'9 9.6
2014-Aug-26 09:33N 36°54' E 002°43'1410.2
2014-Aug-26 08:09N 36°52' E 002°25'810.3
2014-Aug-26 07:24N 36°51' E 002°16'1910.5
2014-Aug-26 05:33N 36°48' E 001°52'1110.2
2014-Aug-26 04:31N 36°47' E 001°39'29 9.7
2014-Aug-26 01:33N 36°43' E 001°03'10 9.9
2014-Aug-26 00:33N 36°41' E 000°51'1010.2
2014-Aug-25 23:33N 36°40' E 000°38'9 9.4
2014-Aug-25 22:33N 36°38' E 000°27'9 9.1
2014-Aug-25 21:33N 36°37' E 000°15'9 8.7
2014-Aug-25 20:33N 36°36' E 000°05'10 8.5
2014-Aug-25 19:25N 36°35' W 000°07'7 8.3
2014-Aug-25 18:33N 36°34' W 000°16'8 8.3
2014-Aug-25 17:33N 36°33' W 000°26'9 8.5
2014-Aug-25 16:30N 36°32' W 000°38'8 8.6
2014-Aug-25 15:33N 36°30' W 000°48'20 8.9
2014-Aug-25 13:18N 36°27' W 001°12'9 8.7
2014-Aug-25 12:17N 36°26' W 001°23'6 8.5
2014-Aug-25 11:33N 36°26' W 001°31'54 9.0
2014-Aug-25 05:31N 36°18' W 002°37'295 9.8
2014-Aug-23 23:28N 36°27' W 008°44'9 9.8
2014-Aug-23 22:32N 36°30' W 008°55'1010.7
2014-Aug-23 21:33N 36°33' W 009°07'10 9.8
2014-Aug-23 20:30N 36°37' W 009°19'1010.2
2014-Aug-23 19:32N 36°44' W 009°27'  

Dump ship's entire track history